sensor_id;sensor_type;location;lat;lon;timestamp;P1;durP1;ratioP1;P2;durP2;ratioP2
4448;SDS011;2237;51.870;6.160;2023-07-31T00:02:03;0.88;;;0.30;;
4448;SDS011;2237;51.870;6.160;2023-07-31T00:04:30;1.63;;;0.73;;
4448;SDS011;2237;51.870;6.160;2023-07-31T00:06:57;0.40;;;0.40;;
4448;SDS011;2237;51.870;6.160;2023-07-31T00:09:23;1.75;;;0.40;;
4448;SDS011;2237;51.870;6.160;2023-07-31T00:11:49;0.77;;;0.38;;
4448;SDS011;2237;51.870;6.160;2023-07-31T00:14:16;0.90;;;0.30;;
4448;SDS011;2237;51.870;6.160;2023-07-31T00:16:42;0.95;;;0.47;;
4448;SDS011;2237;51.870;6.160;2023-07-31T00:19:09;0.70;;;0.40;;
4448;SDS011;2237;51.870;6.160;2023-07-31T00:21:35;0.65;;;0.40;;
4448;SDS011;2237;51.870;6.160;2023-07-31T00:24:02;1.38;;;0.55;;
4448;SDS011;2237;51.870;6.160;2023-07-31T00:26:28;1.88;;;0.52;;
4448;SDS011;2237;51.870;6.160;2023-07-31T00:28:55;1.08;;;0.50;;
4448;SDS011;2237;51.870;6.160;2023-07-31T00:31:21;0.30;;;0.30;;
4448;SDS011;2237;51.870;6.160;2023-07-31T00:33:47;1.75;;;0.57;;
4448;SDS011;2237;51.870;6.160;2023-07-31T00:36:14;0.47;;;0.38;;
4448;SDS011;2237;51.870;6.160;2023-07-31T00:38:40;3.83;;;0.70;;
4448;SDS011;2237;51.870;6.160;2023-07-31T00:41:07;1.55;;;0.60;;
4448;SDS011;2237;51.870;6.160;2023-07-31T00:43:33;1.55;;;0.73;;
4448;SDS011;2237;51.870;6.160;2023-07-31T00:46:00;2.30;;;1.15;;
4448;SDS011;2237;51.870;6.160;2023-07-31T00:48:26;6.53;;;2.80;;
4448;SDS011;2237;51.870;6.160;2023-07-31T00:50:53;5.78;;;2.72;;
4448;SDS011;2237;51.870;6.160;2023-07-31T00:53:19;10.90;;;3.63;;
4448;SDS011;2237;51.870;6.160;2023-07-31T00:55:46;10.88;;;4.00;;
4448;SDS011;2237;51.870;6.160;2023-07-31T00:58:12;13.52;;;4.72;;
4448;SDS011;2237;51.870;6.160;2023-07-31T01:00:39;13.05;;;5.30;;
4448;SDS011;2237;51.870;6.160;2023-07-31T01:03:05;20.20;;;5.82;;
4448;SDS011;2237;51.870;6.160;2023-07-31T01:08:54;24.58;;;6.93;;
4448;SDS011;2237;51.870;6.160;2023-07-31T01:11:30;19.50;;;6.57;;
4448;SDS011;2237;51.870;6.160;2023-07-31T01:14:00;24.35;;;5.90;;
4448;SDS011;2237;51.870;6.160;2023-07-31T01:16:27;16.95;;;6.05;;
4448;SDS011;2237;51.870;6.160;2023-07-31T01:18:54;24.35;;;6.80;;
4448;SDS011;2237;51.870;6.160;2023-07-31T01:27:04;20.10;;;6.15;;
4448;SDS011;2237;51.870;6.160;2023-07-31T01:29:38;12.73;;;5.03;;
4448;SDS011;2237;51.870;6.160;2023-07-31T01:32:09;18.92;;;5.88;;
4448;SDS011;2237;51.870;6.160;2023-07-31T01:34:37;9.98;;;4.90;;
4448;SDS011;2237;51.870;6.160;2023-07-31T01:37:05;21.23;;;5.95;;
4448;SDS011;2237;51.870;6.160;2023-07-31T01:39:31;14.35;;;4.57;;
4448;SDS011;2237;51.870;6.160;2023-07-31T01:41:58;13.02;;;5.00;;
4448;SDS011;2237;51.870;6.160;2023-07-31T01:44:24;21.77;;;6.60;;
4448;SDS011;2237;51.870;6.160;2023-07-31T01:46:50;20.95;;;6.28;;
4448;SDS011;2237;51.870;6.160;2023-07-31T01:49:17;16.52;;;5.88;;
4448;SDS011;2237;51.870;6.160;2023-07-31T01:51:43;19.02;;;6.68;;
4448;SDS011;2237;51.870;6.160;2023-07-31T01:54:10;17.83;;;5.20;;
4448;SDS011;2237;51.870;6.160;2023-07-31T01:56:37;15.68;;;5.88;;
4448;SDS011;2237;51.870;6.160;2023-07-31T01:59:04;20.45;;;5.20;;
4448;SDS011;2237;51.870;6.160;2023-07-31T02:01:30;19.48;;;6.32;;
4448;SDS011;2237;51.870;6.160;2023-07-31T02:03:57;17.05;;;6.22;;
4448;SDS011;2237;51.870;6.160;2023-07-31T02:06:23;18.02;;;5.15;;
4448;SDS011;2237;51.870;6.160;2023-07-31T02:08:50;16.27;;;5.90;;
4448;SDS011;2237;51.870;6.160;2023-07-31T02:11:16;13.95;;;4.57;;
4448;SDS011;2237;51.870;6.160;2023-07-31T02:13:43;18.70;;;5.25;;
4448;SDS011;2237;51.870;6.160;2023-07-31T02:16:09;9.00;;;2.95;;
4448;SDS011;2237;51.870;6.160;2023-07-31T02:18:36;13.15;;;3.65;;
4448;SDS011;2237;51.870;6.160;2023-07-31T02:21:02;6.55;;;3.13;;
4448;SDS011;2237;51.870;6.160;2023-07-31T02:23:29;18.88;;;5.00;;
4448;SDS011;2237;51.870;6.160;2023-07-31T02:25:55;20.88;;;5.03;;
4448;SDS011;2237;51.870;6.160;2023-07-31T02:28:22;13.35;;;4.40;;
4448;SDS011;2237;51.870;6.160;2023-07-31T02:30:49;10.15;;;3.60;;
4448;SDS011;2237;51.870;6.160;2023-07-31T02:33:17;14.82;;;4.05;;
4448;SDS011;2237;51.870;6.160;2023-07-31T02:35:43;16.75;;;4.38;;
4448;SDS011;2237;51.870;6.160;2023-07-31T02:38:10;10.82;;;3.95;;
4448;SDS011;2237;51.870;6.160;2023-07-31T02:40:36;14.93;;;4.10;;
4448;SDS011;2237;51.870;6.160;2023-07-31T02:43:03;15.68;;;4.97;;
4448;SDS011;2237;51.870;6.160;2023-07-31T02:45:29;16.73;;;4.38;;
4448;SDS011;2237;51.870;6.160;2023-07-31T02:47:55;13.38;;;3.42;;
4448;SDS011;2237;51.870;6.160;2023-07-31T02:50:22;9.52;;;3.85;;
4448;SDS011;2237;51.870;6.160;2023-07-31T02:52:48;13.27;;;4.65;;
4448;SDS011;2237;51.870;6.160;2023-07-31T02:55:15;15.63;;;3.85;;
4448;SDS011;2237;51.870;6.160;2023-07-31T02:57:41;11.73;;;3.88;;
4448;SDS011;2237;51.870;6.160;2023-07-31T03:00:08;12.85;;;4.28;;
4448;SDS011;2237;51.870;6.160;2023-07-31T03:02:35;17.08;;;4.22;;
4448;SDS011;2237;51.870;6.160;2023-07-31T03:05:02;24.42;;;6.47;;
4448;SDS011;2237;51.870;6.160;2023-07-31T03:07:28;11.57;;;4.68;;
4448;SDS011;2237;51.870;6.160;2023-07-31T03:09:56;13.80;;;4.88;;
4448;SDS011;2237;51.870;6.160;2023-07-31T03:12:22;20.65;;;4.10;;
4448;SDS011;2237;51.870;6.160;2023-07-31T03:14:49;9.73;;;3.83;;
4448;SDS011;2237;51.870;6.160;2023-07-31T03:17:15;11.52;;;3.38;;
4448;SDS011;2237;51.870;6.160;2023-07-31T03:19:42;10.73;;;3.08;;
4448;SDS011;2237;51.870;6.160;2023-07-31T03:22:08;11.40;;;3.45;;
4448;SDS011;2237;51.870;6.160;2023-07-31T03:24:34;13.02;;;3.28;;
4448;SDS011;2237;51.870;6.160;2023-07-31T03:27:01;17.95;;;3.42;;
4448;SDS011;2237;51.870;6.160;2023-07-31T03:29:27;9.43;;;3.42;;
4448;SDS011;2237;51.870;6.160;2023-07-31T03:31:54;8.95;;;2.65;;
4448;SDS011;2237;51.870;6.160;2023-07-31T03:34:20;12.27;;;2.92;;
4448;SDS011;2237;51.870;6.160;2023-07-31T03:36:48;21.58;;;3.83;;
4448;SDS011;2237;51.870;6.160;2023-07-31T03:39:14;15.23;;;3.08;;
4448;SDS011;2237;51.870;6.160;2023-07-31T03:41:40;12.57;;;3.30;;
4448;SDS011;2237;51.870;6.160;2023-07-31T03:44:07;17.02;;;3.40;;
4448;SDS011;2237;51.870;6.160;2023-07-31T03:46:33;18.50;;;3.75;;
4448;SDS011;2237;51.870;6.160;2023-07-31T03:49:00;18.50;;;4.18;;
4448;SDS011;2237;51.870;6.160;2023-07-31T03:51:27;10.20;;;2.80;;
4448;SDS011;2237;51.870;6.160;2023-07-31T03:53:54;11.10;;;3.53;;
4448;SDS011;2237;51.870;6.160;2023-07-31T03:56:20;11.60;;;2.95;;
4448;SDS011;2237;51.870;6.160;2023-07-31T03:58:46;14.32;;;3.35;;
4448;SDS011;2237;51.870;6.160;2023-07-31T04:01:13;10.10;;;3.15;;
4448;SDS011;2237;51.870;6.160;2023-07-31T04:03:39;10.20;;;3.00;;
4448;SDS011;2237;51.870;6.160;2023-07-31T04:06:06;13.55;;;3.97;;
4448;SDS011;2237;51.870;6.160;2023-07-31T04:08:33;13.93;;;3.28;;
4448;SDS011;2237;51.870;6.160;2023-07-31T04:10:59;13.80;;;3.67;;
4448;SDS011;2237;51.870;6.160;2023-07-31T04:13:26;12.63;;;3.10;;
4448;SDS011;2237;51.870;6.160;2023-07-31T04:15:54;17.58;;;4.22;;
4448;SDS011;2237;51.870;6.160;2023-07-31T04:18:21;8.68;;;2.60;;
4448;SDS011;2237;51.870;6.160;2023-07-31T04:20:48;10.85;;;3.75;;
4448;SDS011;2237;51.870;6.160;2023-07-31T04:23:14;14.63;;;3.38;;
4448;SDS011;2237;51.870;6.160;2023-07-31T04:25:41;14.15;;;3.58;;
4448;SDS011;2237;51.870;6.160;2023-07-31T04:28:07;14.93;;;3.78;;
4448;SDS011;2237;51.870;6.160;2023-07-31T04:30:34;13.57;;;4.55;;
4448;SDS011;2237;51.870;6.160;2023-07-31T04:33:00;12.85;;;3.55;;
4448;SDS011;2237;51.870;6.160;2023-07-31T04:35:27;14.70;;;3.75;;
4448;SDS011;2237;51.870;6.160;2023-07-31T04:37:53;9.77;;;2.83;;
4448;SDS011;2237;51.870;6.160;2023-07-31T04:40:20;14.27;;;3.17;;
4448;SDS011;2237;51.870;6.160;2023-07-31T04:42:47;10.25;;;3.60;;
4448;SDS011;2237;51.870;6.160;2023-07-31T04:45:13;13.73;;;3.08;;
4448;SDS011;2237;51.870;6.160;2023-07-31T04:47:40;12.02;;;3.60;;
4448;SDS011;2237;51.870;6.160;2023-07-31T04:50:07;9.02;;;2.90;;
4448;SDS011;2237;51.870;6.160;2023-07-31T04:52:33;14.80;;;3.03;;
4448;SDS011;2237;51.870;6.160;2023-07-31T04:55:00;12.25;;;3.63;;
4448;SDS011;2237;51.870;6.160;2023-07-31T04:57:26;13.88;;;3.83;;
4448;SDS011;2237;51.870;6.160;2023-07-31T04:59:53;18.38;;;4.28;;
4448;SDS011;2237;51.870;6.160;2023-07-31T05:02:19;10.75;;;3.10;;
4448;SDS011;2237;51.870;6.160;2023-07-31T05:04:46;13.23;;;3.00;;
4448;SDS011;2237;51.870;6.160;2023-07-31T05:07:12;12.25;;;2.95;;
4448;SDS011;2237;51.870;6.160;2023-07-31T05:09:38;9.88;;;2.85;;
4448;SDS011;2237;51.870;6.160;2023-07-31T05:12:05;8.00;;;3.38;;
4448;SDS011;2237;51.870;6.160;2023-07-31T05:14:32;13.32;;;3.38;;
4448;SDS011;2237;51.870;6.160;2023-07-31T05:16:58;17.88;;;3.95;;
4448;SDS011;2237;51.870;6.160;2023-07-31T05:19:25;11.35;;;2.60;;
4448;SDS011;2237;51.870;6.160;2023-07-31T05:21:51;16.48;;;3.13;;
4448;SDS011;2237;51.870;6.160;2023-07-31T05:24:17;8.15;;;2.50;;
4448;SDS011;2237;51.870;6.160;2023-07-31T05:26:44;10.25;;;2.67;;
4448;SDS011;2237;51.870;6.160;2023-07-31T05:29:10;7.30;;;2.67;;
4448;SDS011;2237;51.870;6.160;2023-07-31T05:31:37;11.63;;;2.17;;
4448;SDS011;2237;51.870;6.160;2023-07-31T05:34:04;7.20;;;2.90;;
4448;SDS011;2237;51.870;6.160;2023-07-31T05:36:31;7.57;;;2.92;;
4448;SDS011;2237;51.870;6.160;2023-07-31T05:38:57;12.68;;;3.47;;
4448;SDS011;2237;51.870;6.160;2023-07-31T05:41:23;6.63;;;3.10;;
4448;SDS011;2237;51.870;6.160;2023-07-31T05:43:50;10.40;;;3.25;;
4448;SDS011;2237;51.870;6.160;2023-07-31T05:46:17;10.98;;;3.25;;
4448;SDS011;2237;51.870;6.160;2023-07-31T05:48:44;10.18;;;3.30;;
4448;SDS011;2237;51.870;6.160;2023-07-31T05:51:10;11.68;;;3.03;;
4448;SDS011;2237;51.870;6.160;2023-07-31T05:53:36;8.73;;;2.58;;
4448;SDS011;2237;51.870;6.160;2023-07-31T05:56:06;10.27;;;3.13;;
4448;SDS011;2237;51.870;6.160;2023-07-31T05:58:33;9.32;;;2.22;;
4448;SDS011;2237;51.870;6.160;2023-07-31T06:00:59;9.05;;;3.10;;
4448;SDS011;2237;51.870;6.160;2023-07-31T06:03:26;11.88;;;3.30;;
4448;SDS011;2237;51.870;6.160;2023-07-31T06:05:52;13.77;;;3.40;;
4448;SDS011;2237;51.870;6.160;2023-07-31T06:08:18;14.07;;;3.28;;
4448;SDS011;2237;51.870;6.160;2023-07-31T06:10:48;12.88;;;3.55;;
4448;SDS011;2237;51.870;6.160;2023-07-31T06:13:14;11.18;;;3.15;;
4448;SDS011;2237;51.870;6.160;2023-07-31T06:15:40;12.55;;;3.03;;
4448;SDS011;2237;51.870;6.160;2023-07-31T06:18:07;11.88;;;3.25;;
4448;SDS011;2237;51.870;6.160;2023-07-31T06:20:34;14.73;;;3.40;;
4448;SDS011;2237;51.870;6.160;2023-07-31T06:23:01;15.70;;;3.80;;
4448;SDS011;2237;51.870;6.160;2023-07-31T06:25:27;14.32;;;3.63;;
4448;SDS011;2237;51.870;6.160;2023-07-31T06:27:54;13.77;;;3.53;;
4448;SDS011;2237;51.870;6.160;2023-07-31T06:30:20;9.77;;;3.08;;
4448;SDS011;2237;51.870;6.160;2023-07-31T06:32:47;7.85;;;3.20;;
4448;SDS011;2237;51.870;6.160;2023-07-31T06:35:13;9.35;;;3.42;;
4448;SDS011;2237;51.870;6.160;2023-07-31T06:37:39;10.82;;;3.00;;
4448;SDS011;2237;51.870;6.160;2023-07-31T06:40:06;5.90;;;2.35;;
4448;SDS011;2237;51.870;6.160;2023-07-31T06:42:35;8.90;;;2.47;;
4448;SDS011;2237;51.870;6.160;2023-07-31T06:45:02;7.53;;;2.35;;
4448;SDS011;2237;51.870;6.160;2023-07-31T06:47:28;9.05;;;3.10;;
4448;SDS011;2237;51.870;6.160;2023-07-31T06:49:55;8.13;;;2.28;;
4448;SDS011;2237;51.870;6.160;2023-07-31T06:52:22;7.10;;;2.50;;
4448;SDS011;2237;51.870;6.160;2023-07-31T06:55:00;5.65;;;1.95;;
4448;SDS011;2237;51.870;6.160;2023-07-31T06:57:41;7.40;;;2.53;;
4448;SDS011;2237;51.870;6.160;2023-07-31T07:00:07;7.30;;;2.15;;
4448;SDS011;2237;51.870;6.160;2023-07-31T07:02:34;6.25;;;2.17;;
4448;SDS011;2237;51.870;6.160;2023-07-31T07:05:01;3.88;;;1.40;;
4448;SDS011;2237;51.870;6.160;2023-07-31T07:07:27;3.05;;;1.52;;
4448;SDS011;2237;51.870;6.160;2023-07-31T07:09:53;3.33;;;1.40;;
4448;SDS011;2237;51.870;6.160;2023-07-31T07:12:20;2.40;;;1.38;;
4448;SDS011;2237;51.870;6.160;2023-07-31T07:14:46;4.13;;;1.27;;
4448;SDS011;2237;51.870;6.160;2023-07-31T07:17:13;2.95;;;1.30;;
4448;SDS011;2237;51.870;6.160;2023-07-31T07:19:40;2.13;;;1.10;;
4448;SDS011;2237;51.870;6.160;2023-07-31T07:22:07;1.80;;;1.08;;
4448;SDS011;2237;51.870;6.160;2023-07-31T07:24:34;3.35;;;1.00;;
4448;SDS011;2237;51.870;6.160;2023-07-31T07:27:00;3.08;;;1.00;;
4448;SDS011;2237;51.870;6.160;2023-07-31T07:29:26;1.58;;;0.95;;
4448;SDS011;2237;51.870;6.160;2023-07-31T07:31:53;3.75;;;1.20;;
4448;SDS011;2237;51.870;6.160;2023-07-31T07:34:19;2.03;;;1.10;;
4448;SDS011;2237;51.870;6.160;2023-07-31T07:36:45;2.22;;;1.17;;
4448;SDS011;2237;51.870;6.160;2023-07-31T07:39:12;3.17;;;1.10;;
4448;SDS011;2237;51.870;6.160;2023-07-31T07:41:38;2.00;;;1.17;;
4448;SDS011;2237;51.870;6.160;2023-07-31T07:44:05;1.08;;;0.73;;
4448;SDS011;2237;51.870;6.160;2023-07-31T07:46:32;2.90;;;0.95;;
4448;SDS011;2237;51.870;6.160;2023-07-31T07:48:59;2.33;;;1.13;;
4448;SDS011;2237;51.870;6.160;2023-07-31T07:51:26;1.27;;;0.82;;
4448;SDS011;2237;51.870;6.160;2023-07-31T07:53:52;2.55;;;1.30;;
4448;SDS011;2237;51.870;6.160;2023-07-31T07:56:19;1.95;;;0.90;;
4448;SDS011;2237;51.870;6.160;2023-07-31T07:58:48;1.40;;;0.80;;
4448;SDS011;2237;51.870;6.160;2023-07-31T08:01:15;1.02;;;0.52;;
4448;SDS011;2237;51.870;6.160;2023-07-31T08:03:42;1.73;;;0.90;;
4448;SDS011;2237;51.870;6.160;2023-07-31T08:06:08;1.42;;;0.90;;
4448;SDS011;2237;51.870;6.160;2023-07-31T08:08:36;3.00;;;0.90;;
4448;SDS011;2237;51.870;6.160;2023-07-31T08:11:02;2.53;;;0.90;;
4448;SDS011;2237;51.870;6.160;2023-07-31T08:13:29;0.93;;;0.73;;
4448;SDS011;2237;51.870;6.160;2023-07-31T08:15:56;1.98;;;1.00;;
4448;SDS011;2237;51.870;6.160;2023-07-31T08:18:22;2.70;;;1.27;;
4448;SDS011;2237;51.870;6.160;2023-07-31T08:20:49;1.77;;;1.00;;
4448;SDS011;2237;51.870;6.160;2023-07-31T08:23:15;2.72;;;1.40;;
4448;SDS011;2237;51.870;6.160;2023-07-31T08:25:42;2.03;;;1.02;;
4448;SDS011;2237;51.870;6.160;2023-07-31T08:28:08;1.98;;;0.90;;
4448;SDS011;2237;51.870;6.160;2023-07-31T08:30:34;2.42;;;1.30;;
4448;SDS011;2237;51.870;6.160;2023-07-31T08:33:01;1.70;;;1.08;;
4448;SDS011;2237;51.870;6.160;2023-07-31T08:35:27;4.40;;;1.80;;
4448;SDS011;2237;51.870;6.160;2023-07-31T08:37:54;1.65;;;1.10;;
4448;SDS011;2237;51.870;6.160;2023-07-31T08:40:20;3.58;;;1.38;;
4448;SDS011;2237;51.870;6.160;2023-07-31T08:42:54;1.77;;;1.00;;
4448;SDS011;2237;51.870;6.160;2023-07-31T08:45:28;2.30;;;1.38;;
4448;SDS011;2237;51.870;6.160;2023-07-31T08:47:55;2.80;;;1.27;;
4448;SDS011;2237;51.870;6.160;2023-07-31T08:50:23;2.45;;;1.45;;
4448;SDS011;2237;51.870;6.160;2023-07-31T08:52:50;2.53;;;1.60;;
4448;SDS011;2237;51.870;6.160;2023-07-31T08:55:18;3.25;;;1.20;;
4448;SDS011;2237;51.870;6.160;2023-07-31T08:57:52;1.95;;;1.20;;
4448;SDS011;2237;51.870;6.160;2023-07-31T09:00:20;2.37;;;1.40;;
4448;SDS011;2237;51.870;6.160;2023-07-31T09:02:56;5.10;;;1.40;;
4448;SDS011;2237;51.870;6.160;2023-07-31T09:05:28;4.40;;;1.40;;
4448;SDS011;2237;51.870;6.160;2023-07-31T09:07:56;2.63;;;1.45;;
4448;SDS011;2237;51.870;6.160;2023-07-31T09:10:23;2.47;;;1.50;;
4448;SDS011;2237;51.870;6.160;2023-07-31T09:12:53;1.50;;;0.88;;
4448;SDS011;2237;51.870;6.160;2023-07-31T09:15:20;1.85;;;0.93;;
4448;SDS011;2237;51.870;6.160;2023-07-31T09:18:03;1.98;;;1.17;;
4448;SDS011;2237;51.870;6.160;2023-07-31T09:20:31;2.85;;;1.38;;
4448;SDS011;2237;51.870;6.160;2023-07-31T09:23:04;1.80;;;1.13;;
4448;SDS011;2237;51.870;6.160;2023-07-31T09:25:35;2.28;;;1.30;;
4448;SDS011;2237;51.870;6.160;2023-07-31T09:28:04;3.42;;;1.10;;
4448;SDS011;2237;51.870;6.160;2023-07-31T09:30:43;2.25;;;1.10;;
4448;SDS011;2237;51.870;6.160;2023-07-31T09:33:14;3.00;;;1.63;;
4448;SDS011;2237;51.870;6.160;2023-07-31T09:35:41;2.47;;;1.30;;
4448;SDS011;2237;51.870;6.160;2023-07-31T09:38:11;3.03;;;1.17;;
4448;SDS011;2237;51.870;6.160;2023-07-31T09:40:40;3.00;;;1.20;;
4448;SDS011;2237;51.870;6.160;2023-07-31T09:43:09;3.55;;;1.02;;
4448;SDS011;2237;51.870;6.160;2023-07-31T09:45:38;2.22;;;1.35;;
4448;SDS011;2237;51.870;6.160;2023-07-31T09:48:17;3.08;;;1.20;;
4448;SDS011;2237;51.870;6.160;2023-07-31T09:50:45;3.67;;;1.70;;
4448;SDS011;2237;51.870;6.160;2023-07-31T09:53:13;4.72;;;2.08;;
4448;SDS011;2237;51.870;6.160;2023-07-31T09:55:40;3.13;;;1.55;;
4448;SDS011;2237;51.870;6.160;2023-07-31T09:58:08;3.40;;;1.50;;
4448;SDS011;2237;51.870;6.160;2023-07-31T10:00:36;2.70;;;1.77;;
4448;SDS011;2237;51.870;6.160;2023-07-31T10:03:07;3.47;;;1.73;;
4448;SDS011;2237;51.870;6.160;2023-07-31T10:05:40;4.72;;;2.15;;
4448;SDS011;2237;51.870;6.160;2023-07-31T10:08:09;3.00;;;2.03;;
4448;SDS011;2237;51.870;6.160;2023-07-31T10:10:37;4.28;;;1.75;;
4448;SDS011;2237;51.870;6.160;2023-07-31T10:13:07;4.75;;;2.50;;
4448;SDS011;2237;51.870;6.160;2023-07-31T10:15:35;4.10;;;2.33;;
4448;SDS011;2237;51.870;6.160;2023-07-31T10:18:02;2.92;;;1.95;;
4448;SDS011;2237;51.870;6.160;2023-07-31T10:20:31;7.30;;;3.10;;
4448;SDS011;2237;51.870;6.160;2023-07-31T10:22:58;5.85;;;2.70;;
4448;SDS011;2237;51.870;6.160;2023-07-31T10:25:28;6.47;;;2.38;;
4448;SDS011;2237;51.870;6.160;2023-07-31T10:27:55;9.57;;;3.35;;
4448;SDS011;2237;51.870;6.160;2023-07-31T10:30:25;8.50;;;3.70;;
4448;SDS011;2237;51.870;6.160;2023-07-31T10:32:53;7.00;;;3.03;;
4448;SDS011;2237;51.870;6.160;2023-07-31T10:35:22;7.38;;;3.45;;
4448;SDS011;2237;51.870;6.160;2023-07-31T10:37:48;6.53;;;2.90;;
4448;SDS011;2237;51.870;6.160;2023-07-31T10:40:25;7.38;;;3.58;;
4448;SDS011;2237;51.870;6.160;2023-07-31T10:42:53;7.85;;;3.67;;
4448;SDS011;2237;51.870;6.160;2023-07-31T10:45:31;6.32;;;3.05;;
4448;SDS011;2237;51.870;6.160;2023-07-31T10:50:27;4.70;;;2.45;;
4448;SDS011;2237;51.870;6.160;2023-07-31T10:52:55;10.13;;;3.50;;
4448;SDS011;2237;51.870;6.160;2023-07-31T10:55:31;7.22;;;3.00;;
4448;SDS011;2237;51.870;6.160;2023-07-31T11:00:38;7.95;;;3.00;;
4448;SDS011;2237;51.870;6.160;2023-07-31T11:03:07;6.13;;;2.60;;
4448;SDS011;2237;51.870;6.160;2023-07-31T11:08:23;6.88;;;3.05;;
4448;SDS011;2237;51.870;6.160;2023-07-31T11:10:51;4.78;;;2.90;;
4448;SDS011;2237;51.870;6.160;2023-07-31T11:13:41;6.50;;;2.75;;
4448;SDS011;2237;51.870;6.160;2023-07-31T11:16:10;4.45;;;2.63;;
4448;SDS011;2237;51.870;6.160;2023-07-31T11:18:38;4.78;;;2.40;;
4448;SDS011;2237;51.870;6.160;2023-07-31T11:21:12;4.47;;;1.88;;
4448;SDS011;2237;51.870;6.160;2023-07-31T11:23:40;7.72;;;2.33;;
4448;SDS011;2237;51.870;6.160;2023-07-31T11:26:07;6.25;;;3.20;;
4448;SDS011;2237;51.870;6.160;2023-07-31T11:28:34;5.18;;;2.65;;
4448;SDS011;2237;51.870;6.160;2023-07-31T11:31:01;6.40;;;2.50;;
4448;SDS011;2237;51.870;6.160;2023-07-31T11:33:28;4.30;;;2.42;;
4448;SDS011;2237;51.870;6.160;2023-07-31T11:35:55;4.95;;;2.40;;
4448;SDS011;2237;51.870;6.160;2023-07-31T11:40:54;4.75;;;2.75;;
4448;SDS011;2237;51.870;6.160;2023-07-31T11:43:25;4.43;;;2.40;;
4448;SDS011;2237;51.870;6.160;2023-07-31T11:45:54;7.30;;;2.72;;
4448;SDS011;2237;51.870;6.160;2023-07-31T11:48:25;4.95;;;2.35;;
4448;SDS011;2237;51.870;6.160;2023-07-31T11:51:05;10.57;;;2.67;;
4448;SDS011;2237;51.870;6.160;2023-07-31T11:56:03;4.50;;;2.33;;
4448;SDS011;2237;51.870;6.160;2023-07-31T11:58:31;3.35;;;1.63;;
4448;SDS011;2237;51.870;6.160;2023-07-31T12:00:59;5.07;;;2.33;;
4448;SDS011;2237;51.870;6.160;2023-07-31T12:03:27;6.90;;;2.88;;
4448;SDS011;2237;51.870;6.160;2023-07-31T12:05:54;9.65;;;2.42;;
4448;SDS011;2237;51.870;6.160;2023-07-31T12:08:21;4.93;;;2.20;;
4448;SDS011;2237;51.870;6.160;2023-07-31T12:10:51;6.30;;;2.58;;
4448;SDS011;2237;51.870;6.160;2023-07-31T12:15:55;5.68;;;1.98;;
4448;SDS011;2237;51.870;6.160;2023-07-31T12:18:25;5.60;;;2.22;;
4448;SDS011;2237;51.870;6.160;2023-07-31T12:20:59;4.05;;;1.80;;
4448;SDS011;2237;51.870;6.160;2023-07-31T12:28:40;6.00;;;2.55;;
4448;SDS011;2237;51.870;6.160;2023-07-31T12:31:17;6.28;;;2.88;;
4448;SDS011;2237;51.870;6.160;2023-07-31T12:33:45;4.10;;;2.53;;
4448;SDS011;2237;51.870;6.160;2023-07-31T12:36:14;4.93;;;1.98;;
4448;SDS011;2237;51.870;6.160;2023-07-31T12:38:42;6.28;;;2.63;;
4448;SDS011;2237;51.870;6.160;2023-07-31T12:41:09;4.03;;;2.15;;
4448;SDS011;2237;51.870;6.160;2023-07-31T12:43:39;4.18;;;2.20;;
4448;SDS011;2237;51.870;6.160;2023-07-31T12:48:34;4.63;;;2.30;;
4448;SDS011;2237;51.870;6.160;2023-07-31T12:51:01;4.22;;;2.08;;
4448;SDS011;2237;51.870;6.160;2023-07-31T12:53:28;4.78;;;2.42;;
4448;SDS011;2237;51.870;6.160;2023-07-31T12:55:56;4.20;;;2.15;;
4448;SDS011;2237;51.870;6.160;2023-07-31T12:58:22;4.75;;;1.95;;
4448;SDS011;2237;51.870;6.160;2023-07-31T13:00:49;5.82;;;2.60;;
4448;SDS011;2237;51.870;6.160;2023-07-31T13:03:15;11.65;;;3.13;;
4448;SDS011;2237;51.870;6.160;2023-07-31T13:05:42;5.05;;;2.13;;
4448;SDS011;2237;51.870;6.160;2023-07-31T13:08:08;5.50;;;2.13;;
4448;SDS011;2237;51.870;6.160;2023-07-31T13:10:35;4.20;;;1.83;;
4448;SDS011;2237;51.870;6.160;2023-07-31T13:13:01;4.05;;;1.92;;
4448;SDS011;2237;51.870;6.160;2023-07-31T13:15:28;3.50;;;1.63;;
4448;SDS011;2237;51.870;6.160;2023-07-31T13:17:54;4.38;;;1.88;;
4448;SDS011;2237;51.870;6.160;2023-07-31T13:20:21;4.28;;;1.90;;
4448;SDS011;2237;51.870;6.160;2023-07-31T13:22:47;3.72;;;2.05;;
4448;SDS011;2237;51.870;6.160;2023-07-31T13:25:14;3.42;;;1.40;;
4448;SDS011;2237;51.870;6.160;2023-07-31T13:27:40;7.88;;;2.03;;
4448;SDS011;2237;51.870;6.160;2023-07-31T13:30:06;9.52;;;3.03;;
4448;SDS011;2237;51.870;6.160;2023-07-31T13:32:33;3.53;;;1.60;;
4448;SDS011;2237;51.870;6.160;2023-07-31T13:35:08;6.10;;;2.70;;
4448;SDS011;2237;51.870;6.160;2023-07-31T13:37:34;3.60;;;2.20;;
4448;SDS011;2237;51.870;6.160;2023-07-31T13:40:01;3.42;;;1.98;;
4448;SDS011;2237;51.870;6.160;2023-07-31T13:42:30;5.32;;;1.90;;
4448;SDS011;2237;51.870;6.160;2023-07-31T13:44:57;3.65;;;1.85;;
4448;SDS011;2237;51.870;6.160;2023-07-31T13:47:24;5.47;;;2.20;;
4448;SDS011;2237;51.870;6.160;2023-07-31T13:49:50;3.92;;;2.28;;
4448;SDS011;2237;51.870;6.160;2023-07-31T13:52:16;4.15;;;2.30;;
4448;SDS011;2237;51.870;6.160;2023-07-31T13:54:43;3.90;;;1.85;;
4448;SDS011;2237;51.870;6.160;2023-07-31T13:57:09;4.93;;;2.50;;
4448;SDS011;2237;51.870;6.160;2023-07-31T13:59:36;4.60;;;2.20;;
4448;SDS011;2237;51.870;6.160;2023-07-31T14:02:02;4.28;;;2.50;;
4448;SDS011;2237;51.870;6.160;2023-07-31T14:04:29;4.43;;;1.98;;
4448;SDS011;2237;51.870;6.160;2023-07-31T14:06:56;7.05;;;2.50;;
4448;SDS011;2237;51.870;6.160;2023-07-31T14:09:23;4.18;;;2.65;;
4448;SDS011;2237;51.870;6.160;2023-07-31T14:11:49;6.20;;;2.35;;
4448;SDS011;2237;51.870;6.160;2023-07-31T14:14:16;5.20;;;2.60;;
4448;SDS011;2237;51.870;6.160;2023-07-31T14:16:44;5.75;;;2.58;;
4448;SDS011;2237;51.870;6.160;2023-07-31T14:19:10;5.15;;;2.72;;
4448;SDS011;2237;51.870;6.160;2023-07-31T14:21:37;6.60;;;2.80;;
4448;SDS011;2237;51.870;6.160;2023-07-31T14:24:03;4.30;;;2.38;;
4448;SDS011;2237;51.870;6.160;2023-07-31T14:26:30;8.02;;;3.30;;
4448;SDS011;2237;51.870;6.160;2023-07-31T14:28:57;9.55;;;3.03;;
4448;SDS011;2237;51.870;6.160;2023-07-31T14:31:23;5.78;;;2.75;;
4448;SDS011;2237;51.870;6.160;2023-07-31T14:33:50;8.00;;;2.70;;
4448;SDS011;2237;51.870;6.160;2023-07-31T14:36:16;8.10;;;2.90;;
4448;SDS011;2237;51.870;6.160;2023-07-31T14:38:42;5.35;;;3.30;;
4448;SDS011;2237;51.870;6.160;2023-07-31T14:41:09;5.93;;;2.33;;
4448;SDS011;2237;51.870;6.160;2023-07-31T14:43:35;5.40;;;2.75;;
4448;SDS011;2237;51.870;6.160;2023-07-31T14:46:02;5.68;;;2.67;;
4448;SDS011;2237;51.870;6.160;2023-07-31T14:48:28;4.43;;;1.90;;
4448;SDS011;2237;51.870;6.160;2023-07-31T14:50:55;23.50;;;2.63;;
4448;SDS011;2237;51.870;6.160;2023-07-31T14:53:21;9.02;;;3.42;;
4448;SDS011;2237;51.870;6.160;2023-07-31T14:55:48;6.30;;;2.78;;
4448;SDS011;2237;51.870;6.160;2023-07-31T14:58:14;6.95;;;2.70;;
4448;SDS011;2237;51.870;6.160;2023-07-31T15:00:43;7.40;;;3.20;;
4448;SDS011;2237;51.870;6.160;2023-07-31T15:03:09;7.15;;;3.00;;
4448;SDS011;2237;51.870;6.160;2023-07-31T15:05:36;7.30;;;3.47;;
4448;SDS011;2237;51.870;6.160;2023-07-31T15:08:02;8.57;;;3.47;;
4448;SDS011;2237;51.870;6.160;2023-07-31T15:10:29;5.50;;;3.08;;
4448;SDS011;2237;51.870;6.160;2023-07-31T15:12:55;8.90;;;3.35;;
4448;SDS011;2237;51.870;6.160;2023-07-31T15:15:22;7.00;;;3.03;;
4448;SDS011;2237;51.870;6.160;2023-07-31T15:17:49;5.65;;;3.05;;
4448;SDS011;2237;51.870;6.160;2023-07-31T15:20:16;6.00;;;2.70;;
4448;SDS011;2237;51.870;6.160;2023-07-31T15:22:42;7.03;;;3.38;;
4448;SDS011;2237;51.870;6.160;2023-07-31T15:25:09;6.20;;;2.80;;
4448;SDS011;2237;51.870;6.160;2023-07-31T15:27:35;6.65;;;3.30;;
4448;SDS011;2237;51.870;6.160;2023-07-31T15:30:02;5.40;;;2.70;;
4448;SDS011;2237;51.870;6.160;2023-07-31T15:32:31;6.18;;;2.22;;
4448;SDS011;2237;51.870;6.160;2023-07-31T15:34:57;4.53;;;2.45;;
4448;SDS011;2237;51.870;6.160;2023-07-31T15:37:24;7.60;;;2.63;;
4448;SDS011;2237;51.870;6.160;2023-07-31T15:39:50;6.47;;;2.45;;
4448;SDS011;2237;51.870;6.160;2023-07-31T15:42:17;8.43;;;3.22;;
4448;SDS011;2237;51.870;6.160;2023-07-31T15:44:43;5.43;;;2.83;;